Time;durP1;ratioP1;P1;durP2;ratioP2;P2;SDS_P1;SDS_P2;PMS_P1;PMS_P2;Temp;Humidity;BMP_temperature;BMP_pressure;BME280_temperature;BME280_humidity;BME280_pressure;Samples;Min_cycle;Max_cycle;Signal;HPM_P1;HPM_P2
2023/02/18 00:00:25;;;;;;;8.27;1.20;;;;;;;7.77;81.55;100986.84;5011904;28;21008;-68
2023/02/18 00:02:52;;;;;;;8.40;1.30;;;;;;;7.81;81.17;100991.44;5009936;28;20464;-69
2023/02/18 00:05:19;;;;;;;14.90;1.67;;;;;;;7.72;81.91;101000.34;5071360;23;21030;-66
2023/02/18 00:07:46;;;;;;;7.03;1.00;;;;;;;7.73;82.12;100978.50;5053149;28;20496;-68
2023/02/18 00:10:15;;;;;;;4.87;0.60;;;;;;;7.63;82.48;100983.91;5052442;28;21002;-67
2023/02/18 00:12:43;;;;;;;6.20;1.43;;;;;;;7.66;82.19;100991.47;5051868;28;20465;-67
2023/02/18 00:15:10;;;;;;;11.83;1.77;;;;;;;7.66;82.18;100977.16;5051126;28;20488;-68
2023/02/18 00:17:37;;;;;;;11.23;1.33;;;;;;;7.64;81.85;100995.50;5055195;28;20545;-66
2023/02/18 00:20:04;;;;;;;6.03;1.53;;;;;;;7.57;82.33;100990.41;5053331;28;20887;-67
2023/02/18 00:22:30;;;;;;;6.60;1.27;;;;;;;7.53;83.10;100986.63;5052859;28;21047;-68
2023/02/18 00:24:57;;;;;;;10.03;1.90;;;;;;;7.52;82.86;101009.25;5053931;28;20489;-66
2023/02/18 00:27:24;;;;;;;21.07;1.20;;;;;;;7.58;82.60;101005.47;5054079;28;20468;-66
2023/02/18 00:29:51;;;;;;;15.00;0.97;;;;;;;7.49;83.53;101004.41;5054925;28;20461;-65
2023/02/18 00:32:18;;;;;;;13.27;1.80;;;;;;;7.49;83.53;100996.31;5051802;28;20983;-66
2023/02/18 00:34:45;;;;;;;6.43;1.53;;;;;;;7.46;83.02;101015.72;5051726;28;20490;-66
2023/02/18 00:37:11;;;;;;;13.00;1.80;;;;;;;7.44;83.07;101009.81;5053812;28;20462;-68
2023/02/18 00:39:38;;;;;;;7.23;0.80;;;;;;;7.35;83.59;101020.31;5053097;28;20458;-69
2023/02/18 00:42:05;;;;;;;8.23;1.00;;;;;;;7.38;83.37;101010.84;5054321;28;20486;-70
2023/02/18 00:44:32;;;;;;;11.33;2.07;;;;;;;7.27;83.74;101013.56;5053982;28;20490;-71
2023/02/18 00:47:00;;;;;;;5.20;0.80;;;;;;;7.21;85.01;101025.38;5049386;28;20465;-68
2023/02/18 00:49:27;;;;;;;7.23;1.33;;;;;;;7.16;85.29;101025.38;5054320;28;20557;-69
2023/02/18 00:51:53;;;;;;;7.80;1.00;;;;;;;7.18;85.07;101022.44;5053304;28;20501;-68
2023/02/18 00:54:20;;;;;;;6.47;1.07;;;;;;;7.13;85.37;101033.19;5052548;28;20478;-68
2023/02/18 00:56:46;;;;;;;7.23;1.17;;;;;;;7.10;86.26;101031.03;5054961;28;20434;-69
2023/02/18 00:59:13;;;;;;;8.40;1.50;;;;;;;7.15;85.45;101028.34;5052642;28;20977;-69
2023/02/18 01:01:39;;;;;;;7.33;1.07;;;;;;;7.09;85.36;101022.16;5051744;28;20469;-68
2023/02/18 01:04:07;;;;;;;5.47;0.90;;;;;;;7.07;85.39;101026.97;5047312;28;20497;-67
2023/02/18 01:06:34;;;;;;;9.93;1.23;;;;;;;7.06;85.25;101023.47;5052981;28;20451;-67
2023/02/18 01:09:01;;;;;;;5.73;1.00;;;;;;;7.10;85.30;101036.44;5052328;28;20462;-68
2023/02/18 01:11:27;;;;;;;6.30;0.80;;;;;;;7.13;84.85;101030.50;5051638;28;21011;-68
2023/02/18 01:13:54;;;;;;;9.83;0.70;;;;;;;7.03;85.43;101021.31;5052731;28;20569;-70
2023/02/18 01:16:21;;;;;;;6.17;1.10;;;;;;;7.02;85.54;101011.63;5053049;28;20841;-71
2023/02/18 01:18:47;;;;;;;13.53;1.37;;;;;;;7.06;84.54;101023.47;5051358;28;21119;-66
2023/02/18 01:21:16;;;;;;;13.33;2.03;;;;;;;7.03;85.18;101020.50;5052717;28;20466;-66
2023/02/18 01:23:42;;;;;;;7.07;1.03;;;;;;;7.02;84.83;101024.28;5052107;28;20489;-66
2023/02/18 01:26:10;;;;;;;9.77;1.20;;;;;;;7.00;86.02;101034.53;5051907;28;20465;-69
2023/02/18 01:28:37;;;;;;;7.83;0.77;;;;;;;7.00;85.26;101031.84;5052791;28;20947;-67
2023/02/18 01:31:06;;;;;;;13.30;0.90;;;;;;;6.97;85.18;101027.78;5052637;28;20466;-70
2023/02/18 01:33:33;;;;;;;6.03;1.00;;;;;;;7.05;84.50;101029.97;5054376;28;20441;-69
2023/02/18 01:36:00;;;;;;;5.73;1.30;;;;;;;7.00;85.09;101021.88;5051243;28;21062;-68
2023/02/18 01:38:28;;;;;;;7.40;1.67;;;;;;;7.04;84.58;101024.84;5053313;28;20469;-69
2023/02/18 01:40:55;;;;;;;4.60;0.90;;;;;;;7.09;84.52;101030.25;5053142;28;20557;-69
2023/02/18 01:43:22;;;;;;;8.50;1.20;;;;;;;7.03;85.06;101032.09;5051059;28;20462;-70
2023/02/18 01:45:58;;;;;;;17.43;1.30;;;;;;;6.97;85.03;101027.78;5052949;28;20517;-68
2023/02/18 01:48:29;;;;;;;8.10;0.90;;;;;;;6.94;85.54;101032.88;5053306;28;20454;-68
2023/02/18 01:51:00;;;;;;;7.90;1.07;;;;;;;6.96;86.14;101026.16;5053217;28;20837;-69
2023/02/18 01:53:33;;;;;;;9.63;1.03;;;;;;;6.98;85.57;101020.50;5052041;28;20893;-69
2023/02/18 01:56:03;;;;;;;6.93;1.20;;;;;;;7.05;85.19;101013.78;5051616;28;20541;-68
2023/02/18 01:58:30;;;;;;;6.13;1.30;;;;;;;7.05;85.06;101010.28;5050913;28;20469;-70
2023/02/18 02:00:57;;;;;;;9.20;1.23;;;;;;;6.92;85.54;101018.88;5049023;28;20465;-69
2023/02/18 02:03:23;;;;;;;6.10;0.97;;;;;;;6.96;85.71;101020.78;5052281;28;21007;-70
2023/02/18 02:05:50;;;;;;;8.63;1.07;;;;;;;7.01;84.75;101003.81;5051825;28;20481;-69
2023/02/18 02:08:17;;;;;;;9.70;1.77;;;;;;;6.97;85.99;100997.34;5052415;28;20498;-69
2023/02/18 02:10:59;;;;;;;10.93;1.23;;;;;;;6.89;85.97;101004.06;5051845;28;20465;-68
2023/02/18 02:13:35;;;;;;;6.83;1.13;;;;;;;6.87;85.81;101008.91;5051650;28;20486;-69
2023/02/18 02:16:08;;;;;;;5.77;1.00;;;;;;;6.87;86.09;101017.00;5050053;28;20974;-71
2023/02/18 02:18:49;;;;;;;4.83;0.70;;;;;;;6.87;86.05;101002.72;5050767;28;20462;-69
2023/02/18 02:21:47;;;;;;;6.23;1.53;;;;;;;6.85;86.26;101002.97;5033766;28;20430;-69
2023/02/18 02:24:52;;;;;;;12.10;1.13;;;;;;;6.84;86.14;101012.13;5033051;28;20481;-67
2023/02/18 02:27:29;;;;;;;7.13;0.90;;;;;;;6.85;85.75;101023.69;5050018;28;20542;-69
2023/02/18 02:30:34;;;;;;;6.40;0.87;;;;;;;6.85;85.85;101026.41;5052622;28;20464;-71
2023/02/18 02:33:33;;;;;;;13.63;0.87;;;;;;;6.88;85.16;101023.19;5050812;28;21023;-71
2023/02/18 02:36:06;;;;;;;4.93;0.67;;;;;;;6.79;86.53;101023.69;5050764;28;20537;-71
2023/02/18 02:38:41;;;;;;;5.40;0.87;;;;;;;6.79;86.21;101025.56;5052212;28;20892;-71
2023/02/18 02:41:21;;;;;;;5.33;1.07;;;;;;;6.81;85.89;101028.81;5051421;28;20541;-72
2023/02/18 02:44:01;;;;;;;7.70;1.07;;;;;;;6.80;86.02;101036.06;5052286;28;20493;-72
2023/02/18 02:46:35;;;;;;;6.60;0.67;;;;;;;6.79;85.35;101021.00;5050262;28;20478;-71
2023/02/18 02:49:11;;;;;;;6.57;1.03;;;;;;;6.73;85.84;101032.00;5051762;28;20458;-70
2023/02/18 02:51:46;;;;;;;12.00;1.27;;;;;;;6.75;85.97;101027.97;5051063;28;20457;-71
2023/02/18 02:54:16;;;;;;;10.37;1.07;;;;;;;6.77;85.82;101033.09;5051837;28;21041;-71
2023/02/18 02:56:42;;;;;;;8.47;0.97;;;;;;;6.75;85.88;101021.78;5049439;28;20963;-72
2023/02/18 02:59:15;;;;;;;4.60;0.70;;;;;;;6.81;84.86;101032.28;5052471;28;20454;-71
2023/02/18 03:01:58;;;;;;;9.70;0.90;;;;;;;6.80;84.77;101025.31;5049944;28;20534;-72
2023/02/18 03:05:03;;;;;;;7.83;1.40;;;;;;;6.79;84.47;101021.00;5036102;28;20583;-71
2023/02/18 03:08:00;;;;;;;5.97;0.80;;;;;;;6.73;84.74;101030.16;4988252;28;20547;-70
2023/02/18 03:10:47;;;;;;;10.30;1.00;;;;;;;6.73;85.46;101024.75;4989914;28;20515;-71
2023/02/18 03:13:24;;;;;;;10.70;1.10;;;;;;;6.68;84.99;101018.53;4989997;28;20551;-71
2023/02/18 03:15:56;;;;;;;8.20;0.90;;;;;;;6.70;84.69;101022.59;4989131;28;20457;-69
2023/02/18 03:18:30;;;;;;;8.60;1.30;;;;;;;6.70;84.77;101032.53;4990266;28;20912;-71
2023/02/18 03:21:03;;;;;;;8.90;0.80;;;;;;;6.68;84.75;101024.72;4989698;28;20463;-71
2023/02/18 03:23:37;;;;;;;8.77;1.20;;;;;;;6.73;83.92;101040.06;4978971;28;20468;-72
2023/02/18 03:26:06;;;;;;;6.97;0.90;;;;;;;6.68;84.19;101038.19;4989482;28;20497;-71
2023/02/18 03:28:34;;;;;;;6.27;0.90;;;;;;;6.78;83.50;101038.22;4989476;28;20560;-71
2023/02/18 03:31:06;;;;;;;4.70;0.77;;;;;;;6.82;83.26;101031.25;4988374;28;20970;-71
2023/02/18 03:33:38;;;;;;;8.80;0.93;;;;;;;6.78;83.85;101038.22;4990314;28;20553;-71
2023/02/18 03:36:06;;;;;;;12.30;1.07;;;;;;;6.77;83.38;101038.47;4989681;28;20455;-71
2023/02/18 03:38:40;;;;;;;5.80;0.97;;;;;;;6.77;83.07;101047.41;5024666;28;20461;-71
2023/02/18 03:41:06;;;;;;;9.93;1.60;;;;;;;6.80;82.86;101038.75;5050015;28;20464;-73
2023/02/18 03:43:33;;;;;;;4.60;0.63;;;;;;;6.87;82.18;101041.22;5051658;28;20464;-71
2023/02/18 03:46:00;;;;;;;5.27;0.93;;;;;;;6.87;82.23;101033.16;5049977;28;20584;-71
2023/02/18 03:48:27;;;;;;;5.60;1.43;;;;;;;6.80;82.66;101036.06;5051386;28;20460;-72
2023/02/18 03:50:54;;;;;;;4.40;0.70;;;;;;;6.87;81.92;101035.03;5051856;28;20978;-71
2023/02/18 03:53:20;;;;;;;12.53;1.17;;;;;;;6.91;81.33;101028.03;5055497;28;20490;-71
2023/02/18 03:55:48;;;;;;;7.30;1.30;;;;;;;6.87;81.55;101035.84;5055092;28;20490;-72
2023/02/18 03:58:15;;;;;;;6.67;0.97;;;;;;;6.90;80.97;101023.72;5053372;28;20555;-71
2023/02/18 04:00:41;;;;;;;6.73;0.70;;;;;;;6.94;80.96;101027.50;5052532;28;20458;-68
2023/02/18 04:03:08;;;;;;;6.33;0.90;;;;;;;6.83;81.60;101023.97;5055022;28;20544;-71
2023/02/18 04:05:35;;;;;;;4.17;0.60;;;;;;;6.85;81.88;101018.31;5054260;28;20574;-71
2023/02/18 04:08:01;;;;;;;7.00;1.30;;;;;;;6.79;81.98;101031.78;5054819;28;20540;-71
2023/02/18 04:10:28;;;;;;;12.33;1.10;;;;;;;6.81;81.78;101009.97;5054378;28;20465;-72
2023/02/18 04:12:56;;;;;;;5.50;0.90;;;;;;;6.77;81.95;101023.16;5053132;28;20549;-71
2023/02/18 04:15:23;;;;;;;6.60;1.00;;;;;;;6.80;81.49;101028.00;5052984;28;20557;-72
2023/02/18 04:17:49;;;;;;;7.20;1.00;;;;;;;6.77;81.37;101012.41;5053864;28;20835;-70
2023/02/18 04:20:16;;;;;;;4.97;0.77;;;;;;;6.71;82.12;101034.16;5054693;28;20490;-69
2023/02/18 04:22:43;;;;;;;7.90;1.23;;;;;;;6.80;81.30;101027.19;5053743;28;21007;-71
2023/02/18 04:25:09;;;;;;;6.67;0.90;;;;;;;6.78;82.32;101023.97;5052850;28;20870;-70
2023/02/18 04:27:36;;;;;;;7.00;0.93;;;;;;;6.76;81.54;101028.78;5051461;28;20454;-71
2023/02/18 04:30:05;;;;;;;7.50;1.07;;;;;;;6.74;81.77;101034.44;5053565;28;20468;-70
2023/02/18 04:32:31;;;;;;;9.50;1.57;;;;;;;6.73;81.93;101035.53;5054168;28;20453;-73
2023/02/18 04:34:58;;;;;;;7.07;1.07;;;;;;;6.70;82.22;101030.66;5053778;28;20501;-71
2023/02/18 04:37:25;;;;;;;4.30;0.63;;;;;;;6.66;82.57;101036.84;5052799;28;20491;-71
2023/02/18 04:39:51;;;;;;;5.50;1.00;;;;;;;6.68;82.13;101034.69;5055198;28;20464;-66
2023/02/18 04:42:18;;;;;;;7.07;0.90;;;;;;;6.74;81.59;101031.75;5053445;28;20469;-69
2023/02/18 04:44:44;;;;;;;10.47;0.80;;;;;;;6.64;83.45;101038.97;5052731;28;20482;-68
2023/02/18 04:47:12;;;;;;;4.50;0.80;;;;;;;6.65;82.50;101033.34;5054169;28;20493;-68
2023/02/18 04:49:39;;;;;;;5.60;1.13;;;;;;;6.70;82.10;101043.31;5052932;28;20971;-69
2023/02/18 04:52:06;;;;;;;4.77;0.73;;;;;;;6.65;82.45;101040.63;5054393;28;20541;-69
2023/02/18 04:54:32;;;;;;;7.77;1.50;;;;;;;6.66;82.02;101043.03;5051431;28;20485;-69
2023/02/18 04:56:59;;;;;;;12.90;0.90;;;;;;;6.70;82.25;101044.13;5054052;28;20537;-68
2023/02/18 04:59:25;;;;;;;4.87;0.70;;;;;;;6.69;81.84;101047.09;5053290;28;20462;-68
2023/02/18 05:01:52;;;;;;;6.93;0.80;;;;;;;6.65;82.06;101041.41;5053354;28;20462;-68
2023/02/18 05:04:20;;;;;;;5.10;0.83;;;;;;;6.65;82.49;101043.31;5051944;28;20565;-68
2023/02/18 05:06:47;;;;;;;5.20;0.50;;;;;;;6.58;83.41;101046.22;5044517;28;20518;-68
2023/02/18 05:09:14;;;;;;;7.10;0.90;;;;;;;6.69;82.18;101044.41;5052054;28;20545;-70
2023/02/18 05:11:42;;;;;;;4.33;0.70;;;;;;;6.79;81.34;101044.44;5053631;28;20454;-69
2023/02/18 05:14:08;;;;;;;8.13;0.77;;;;;;;6.82;81.01;101044.72;5053465;28;21033;-68
2023/02/18 05:16:35;;;;;;;6.20;0.80;;;;;;;6.88;80.56;101050.09;5052723;28;20548;-68
2023/02/18 05:19:02;;;;;;;7.00;0.93;;;;;;;6.89;81.00;101043.63;5052601;28;21010;-69
2023/02/18 05:21:30;;;;;;;6.77;0.80;;;;;;;6.92;80.71;101037.75;5051108;28;20967;-69
2023/02/18 05:23:58;;;;;;;8.50;1.03;;;;;;;6.92;80.53;101035.84;5053301;28;20561;-68
2023/02/18 05:26:24;;;;;;;7.70;0.70;;;;;;;6.99;79.80;101030.19;5053220;28;20486;-69
2023/02/18 05:28:51;;;;;;;5.87;0.80;;;;;;;6.95;80.80;101026.41;5051796;28;20468;-68
2023/02/18 05:31:18;;;;;;;4.87;0.60;;;;;;;7.01;79.92;101030.75;5052493;28;20490;-68
2023/02/18 05:33:44;;;;;;;4.90;0.70;;;;;;;7.06;79.60;101028.06;5052461;28;20921;-69
2023/02/18 05:36:11;;;;;;;9.47;1.50;;;;;;;7.06;79.42;101028.06;5052638;28;20460;-67
2023/02/18 05:38:39;;;;;;;9.97;1.23;;;;;;;7.12;79.01;101024.28;5053232;28;20541;-68
2023/02/18 05:41:05;;;;;;;7.50;1.20;;;;;;;7.07;79.39;101021.59;5052086;28;20462;-68
2023/02/18 05:44:28;;;;;;;11.53;1.20;;;;;;;7.10;79.04;101021.06;5052850;28;20538;-67
2023/02/18 05:46:19;;;;;;;9.90;1.00;;;;;;;7.12;78.56;101018.91;5051811;28;20559;-68
2023/02/18 05:48:46;;;;;;;7.17;0.90;;;;;;;7.16;78.35;101025.38;5053186;28;20554;-68
2023/02/18 05:51:13;;;;;;;5.80;0.70;;;;;;;7.24;77.27;101022.16;5050876;28;20541;-67
2023/02/18 05:53:41;;;;;;;4.40;0.70;;;;;;;7.22;77.07;101018.94;5051339;28;20895;-67
2023/02/18 05:56:07;;;;;;;9.63;1.17;;;;;;;7.30;76.99;101028.34;5052586;28;20456;-67
2023/02/18 05:58:34;;;;;;;4.43;0.57;;;;;;;7.28;77.64;101030.53;5050218;28;20485;-67
2023/02/18 06:01:01;;;;;;;6.53;1.10;;;;;;;7.33;77.06;101031.34;5052820;28;20512;-68
2023/02/18 06:03:27;;;;;;;5.00;0.70;;;;;;;7.40;76.48;101032.97;5052436;28;20545;-67
2023/02/18 06:05:54;;;;;;;7.23;1.03;;;;;;;7.27;77.62;101024.34;5057940;22;20495;-68
2023/02/18 06:08:20;;;;;;;4.80;0.73;;;;;;;7.27;77.76;101020.84;5032209;28;20463;-67
2023/02/18 06:10:48;;;;;;;4.67;0.67;;;;;;;7.31;77.53;101025.41;5032847;28;20863;-68
2023/02/18 06:13:15;;;;;;;10.60;1.53;;;;;;;7.39;76.62;101028.63;5027582;28;20554;-68
2023/02/18 06:15:42;;;;;;;8.33;1.10;;;;;;;7.40;77.03;101011.41;5016602;28;20551;-68
2023/02/18 06:18:08;;;;;;;6.40;1.20;;;;;;;7.36;77.42;101015.72;5019312;28;20466;-69
2023/02/18 06:20:35;;;;;;;6.57;0.80;;;;;;;7.35;77.89;101020.31;5019694;28;20456;-69
2023/02/18 06:23:02;;;;;;;6.60;1.07;;;;;;;7.42;77.40;101025.41;5018350;28;20456;-68
2023/02/18 06:25:28;;;;;;;5.37;0.97;;;;;;;7.39;78.26;101024.06;5011842;28;21020;-69
2023/02/18 06:27:56;;;;;;;4.50;0.60;;;;;;;7.41;77.24;101029.19;5016130;28;20499;-69
2023/02/18 06:30:23;;;;;;;5.23;0.70;;;;;;;7.41;77.76;101026.50;5012330;28;20936;-68
2023/02/18 06:32:49;;;;;;;9.77;0.90;;;;;;;7.51;76.57;101029.19;5020310;28;20463;-70
2023/02/18 06:35:16;;;;;;;5.17;0.70;;;;;;;7.49;77.09;101034.06;5011887;28;20570;-68
2023/02/18 06:37:43;;;;;;;6.70;0.60;;;;;;;7.47;76.72;101031.59;5015616;28;20459;-68
2023/02/18 06:40:10;;;;;;;10.00;0.87;;;;;;;7.49;76.77;101029.47;5012517;28;20550;-68
2023/02/18 06:42:37;;;;;;;7.23;0.80;;;;;;;7.44;78.02;101018.69;5019278;28;20474;-68
2023/02/18 06:45:06;;;;;;;5.23;0.80;;;;;;;7.46;77.22;101023.81;5013085;28;20499;-68
2023/02/18 06:47:33;;;;;;;4.80;0.80;;;;;;;7.46;77.89;101019.22;5012109;28;20499;-68
2023/02/18 06:50:00;;;;;;;6.23;1.10;;;;;;;7.47;79.05;101017.31;5011737;28;20835;-69
2023/02/18 06:52:26;;;;;;;5.33;0.90;;;;;;;7.45;78.01;101006.81;5010104;28;20491;-69
2023/02/18 06:54:53;;;;;;;6.00;0.97;;;;;;;7.51;78.28;101024.59;5011552;28;21008;-70
2023/02/18 06:57:20;;;;;;;4.20;0.60;;;;;;;7.49;77.94;101020.56;5012278;28;20588;-69
2023/02/18 06:59:46;;;;;;;6.00;0.97;;;;;;;7.54;78.12;101026.78;5010582;28;20491;-69
2023/02/18 07:02:14;;;;;;;5.83;0.80;;;;;;;7.60;77.69;101022.19;5007406;28;20555;-69
2023/02/18 07:04:41;;;;;;;6.00;0.80;;;;;;;7.62;77.29;101013.84;5008976;28;21044;-69
2023/02/18 07:07:07;;;;;;;6.60;0.70;;;;;;;7.59;77.90;101012.47;5020518;28;20571;-70
2023/02/18 07:09:34;;;;;;;18.00;1.20;;;;;;;7.61;77.71;101015.69;5011258;28;20466;-69
2023/02/18 07:12:00;;;;;;;3.97;0.50;;;;;;;7.58;77.90;101010.88;5009791;28;20913;-69
2023/02/18 07:14:27;;;;;;;5.20;0.80;;;;;;;7.69;77.29;101012.47;5014214;28;20570;-69
2023/02/18 07:16:54;;;;;;;14.80;0.80;;;;;;;7.81;76.10;101012.19;5015926;28;20650;-68
2023/02/18 07:19:22;;;;;;;4.00;0.50;;;;;;;7.81;76.53;101004.09;5015319;28;20542;-68
2023/02/18 07:21:48;;;;;;;4.30;0.53;;;;;;;7.68;77.44;101010.84;5013812;28;20961;-69
2023/02/18 07:24:15;;;;;;;10.17;1.07;;;;;;;7.73;77.26;101001.94;5010983;28;20562;-69
2023/02/18 07:26:41;;;;;;;8.13;0.73;;;;;;;7.74;77.05;100993.59;5014310;28;21042;-68
2023/02/18 07:29:09;;;;;;;4.53;0.80;;;;;;;7.76;77.95;100996.03;5015437;28;20466;-68
2023/02/18 07:31:37;;;;;;;5.53;1.00;;;;;;;7.81;76.93;100996.00;5014362;28;20470;-68
2023/02/18 07:34:03;;;;;;;4.87;0.63;;;;;;;7.79;78.44;100993.59;5014875;28;20498;-68
2023/02/18 07:36:31;;;;;;;4.67;0.93;;;;;;;7.81;78.85;100988.72;5016278;28;20554;-69
2023/02/18 07:38:58;;;;;;;4.80;0.60;;;;;;;7.78;79.58;100989.25;5015025;28;20554;-69
2023/02/18 07:41:41;;;;;;;5.17;0.70;;;;;;;7.89;79.21;100979.28;5014116;28;21025;-68
2023/02/18 07:44:07;;;;;;;6.20;0.63;;;;;;;7.88;78.98;100974.16;5008155;28;20467;-68
2023/02/18 07:46:34;;;;;;;6.10;1.03;;;;;;;7.90;79.85;100970.09;5011413;28;20872;-69
2023/02/18 07:49:00;;;;;;;7.30;0.60;;;;;;;7.88;80.72;100972.28;5014627;28;20551;-69
2023/02/18 07:51:27;;;;;;;5.13;0.70;;;;;;;7.78;82.91;100969.59;5015063;28;20470;-69
2023/02/18 07:53:55;;;;;;;15.00;0.97;;;;;;;7.68;83.63;100972.31;5015138;28;20466;-68
2023/02/18 07:56:21;;;;;;;5.00;0.83;;;;;;;7.57;84.90;100961.53;5015428;28;20459;-69
2023/02/18 07:58:48;;;;;;;7.47;1.17;;;;;;;7.52;84.64;100963.41;5013541;28;20509;-69
2023/02/18 08:01:15;;;;;;;6.90;0.80;;;;;;;7.46;86.60;100953.72;5013726;28;20463;-69
2023/02/18 08:03:42;;;;;;;4.80;0.60;;;;;;;7.37;87.87;100948.06;5013594;28;20522;-68
2023/02/18 08:06:08;;;;;;;4.50;0.60;;;;;;;7.37;87.47;100945.38;5012770;28;20587;-67
2023/02/18 08:08:35;;;;;;;7.73;0.70;;;;;;;7.40;87.86;100944.03;5015622;28;20467;-68
2023/02/18 08:11:05;;;;;;;4.30;0.60;;;;;;;7.34;88.94;100927.06;5014171;28;20460;-68
2023/02/18 08:13:32;;;;;;;6.40;1.03;;;;;;;7.40;87.78;100934.06;5016379;28;20432;-67
2023/02/18 08:15:58;;;;;;;4.93;0.67;;;;;;;7.42;88.18;100928.41;5012346;28;20480;-69
2023/02/18 08:18:26;;;;;;;6.07;1.13;;;;;;;7.44;88.24;100923.56;5014589;28;20456;-70
2023/02/18 08:20:54;;;;;;;9.10;1.17;;;;;;;7.35;89.51;100923.31;5010664;28;20957;-69
2023/02/18 08:23:22;;;;;;;4.50;0.70;;;;;;;7.23;90.81;100911.97;5008180;28;20491;-68
2023/02/18 08:25:50;;;;;;;6.47;0.83;;;;;;;7.17;92.69;100919.28;5013047;28;20487;-69
2023/02/18 08:28:18;;;;;;;9.53;0.80;;;;;;;7.11;94.44;100903.38;5015621;28;20968;-69
2023/02/18 08:30:45;;;;;;;4.30;0.73;;;;;;;7.01;95.43;100906.88;5011777;28;20551;-69
2023/02/18 08:33:12;;;;;;;7.20;0.57;;;;;;;6.89;97.62;100900.94;5009699;28;20837;-69
2023/02/18 08:35:39;;;;;;;8.33;1.67;;;;;;;6.82;98.91;100901.22;5014982;28;20478;-68
2023/02/18 08:38:06;;;;;;;5.53;1.23;;;;;;;6.85;100.00;100902.53;5011824;28;20829;-69
2023/02/18 08:40:32;;;;;;;7.17;1.00;;;;;;;6.81;100.00;100891.50;5009484;28;20961;-70
2023/02/18 08:42:59;;;;;;;4.60;0.77;;;;;;;6.82;100.00;100895.81;5012314;28;20957;-69
2023/02/18 08:45:27;;;;;;;4.20;0.57;;;;;;;6.76;100.00;100892.31;5014389;28;21041;-70
2023/02/18 08:47:54;;;;;;;4.80;0.80;;;;;;;6.76;100.00;100888.81;5014646;28;20488;-69
2023/02/18 08:50:24;;;;;;;8.20;2.30;;;;;;;6.74;100.00;100889.09;5015629;28;20547;-69
2023/02/18 08:52:51;;;;;;;13.40;1.30;;;;;;;6.74;100.00;100878.31;5014305;28;20448;-69
2023/02/18 08:55:19;;;;;;;5.03;1.03;;;;;;;6.75;100.00;100882.63;5015359;28;20482;-69
2023/02/18 08:57:46;;;;;;;5.77;1.10;;;;;;;6.77;100.00;100885.88;5012845;28;20470;-70
2023/02/18 09:00:14;;;;;;;7.00;1.40;;;;;;;6.76;100.00;100876.16;5012152;28;20531;-69
2023/02/18 09:02:42;;;;;;;4.83;0.93;;;;;;;6.78;100.00;100876.69;5015138;28;20546;-69
2023/02/18 09:05:09;;;;;;;4.60;1.03;;;;;;;6.80;100.00;100855.69;5013490;28;20497;-69
2023/02/18 09:07:36;;;;;;;6.03;1.00;;;;;;;6.81;100.00;100851.13;5029929;28;20479;-69
2023/02/18 09:10:03;;;;;;;5.10;1.10;;;;;;;6.82;100.00;100848.16;5017875;28;20965;-69
2023/02/18 09:12:30;;;;;;;4.50;0.90;;;;;;;6.79;100.00;100843.31;5015075;28;20803;-70
2023/02/18 09:14:56;;;;;;;4.70;0.80;;;;;;;6.79;100.00;100831.75;5011851;28;20476;-70
2023/02/18 09:17:23;;;;;;;4.20;0.70;;;;;;;6.87;100.00;100849.25;5008522;28;20887;-70
2023/02/18 09:19:51;;;;;;;4.20;1.00;;;;;;;6.83;100.00;100843.59;5013619;28;20560;-69
2023/02/18 09:22:18;;;;;;;6.57;0.97;;;;;;;6.88;100.00;100840.09;5012200;28;20460;-67
2023/02/18 09:24:45;;;;;;;6.07;1.40;;;;;;;6.90;100.00;100838.72;5018800;28;21026;-69
2023/02/18 09:27:11;;;;;;;7.63;1.50;;;;;;;6.97;100.00;100838.47;5020280;28;20678;-69
2023/02/18 09:29:39;;;;;;;7.13;1.20;;;;;;;7.02;100.00;100827.69;5020053;28;20462;-68
2023/02/18 09:32:08;;;;;;;4.70;1.07;;;;;;;7.00;100.00;100827.16;5012768;28;20552;-68
2023/02/18 09:34:36;;;;;;;5.50;1.00;;;;;;;6.96;100.00;100815.31;5014550;28;20874;-68
2023/02/18 09:37:04;;;;;;;11.43;1.47;;;;;;;6.97;100.00;100800.75;5023919;28;20472;-68
2023/02/18 09:39:31;;;;;;;6.67;1.07;;;;;;;7.06;100.00;100793.75;5009343;28;20797;-68
2023/02/18 09:42:00;;;;;;;6.70;1.40;;;;;;;7.11;100.00;100790.22;5013721;28;20624;-68
2023/02/18 09:44:32;;;;;;;4.50;0.80;;;;;;;7.17;100.00;100784.59;5012685;28;20580;-68
2023/02/18 09:47:02;;;;;;;4.93;1.17;;;;;;;7.22;100.00;100781.88;5013773;28;20471;-68
2023/02/18 09:49:33;;;;;;;5.10;1.03;;;;;;;7.21;100.00;100774.84;5018171;28;20893;-68
2023/02/18 09:52:07;;;;;;;6.30;2.00;;;;;;;7.21;100.00;100771.34;5017138;28;20452;-67
2023/02/18 09:54:33;;;;;;;4.40;1.07;;;;;;;7.16;100.00;100764.09;5020529;28;20473;-69
2023/02/18 09:57:01;;;;;;;7.60;1.20;;;;;;;7.16;100.00;100758.69;5008797;28;21035;-68
2023/02/18 09:59:29;;;;;;;6.57;1.20;;;;;;;7.16;100.00;100745.22;5011303;28;20949;-67
2023/02/18 10:01:56;;;;;;;5.50;1.30;;;;;;;7.16;100.00;100739.03;5009285;28;20506;-68
2023/02/18 10:04:29;;;;;;;5.47;1.10;;;;;;;7.16;100.00;100739.03;5011132;28;20520;-68
2023/02/18 10:06:57;;;;;;;6.63;1.17;;;;;;;7.04;100.00;100742.84;5013525;28;20566;-68
2023/02/18 10:09:29;;;;;;;5.80;0.90;;;;;;;7.10;100.00;100735.56;5011145;28;20547;-68
2023/02/18 10:11:58;;;;;;;5.53;1.10;;;;;;;7.06;100.00;100742.56;5009500;28;20452;-68
2023/02/18 10:14:26;;;;;;;20.37;10.20;;;;;;;7.03;100.00;100738.53;5007204;28;20534;-68
2023/02/18 10:16:53;;;;;;;44.73;14.53;;;;;;;7.06;100.00;100715.63;5009592;28;20586;-68
2023/02/18 10:19:27;;;;;;;22.97;7.03;;;;;;;7.11;100.00;100721.00;5008645;28;20467;-69
2023/02/18 10:21:55;;;;;;;30.40;10.70;;;;;;;7.10;100.00;100708.63;5009301;28;20459;-68
2023/02/18 10:24:31;;;;;;;18.67;8.37;;;;;;;7.12;100.00;100694.88;5019400;28;20477;-69
2023/02/18 10:26:59;;;;;;;12.10;4.00;;;;;;;7.16;100.00;100677.88;5015221;28;20478;-69
2023/02/18 10:29:28;;;;;;;5.90;1.63;;;;;;;7.15;100.00;100662.81;5016179;28;20554;-68
2023/02/18 10:31:58;;;;;;;4.53;0.97;;;;;;;7.17;100.00;100647.19;5018254;28;20464;-68
2023/02/18 10:34:40;;;;;;;6.97;1.27;;;;;;;7.25;100.00;100659.25;5018918;28;21036;-69
2023/02/18 10:37:18;;;;;;;32.03;6.87;;;;;;;7.25;100.00;100641.22;5016741;28;20510;-69
2023/02/18 10:39:58;;;;;;;16.87;4.00;;;;;;;7.21;100.00;100631.25;5017663;28;20463;-68
2023/02/18 10:42:35;;;;;;;10.07;2.90;;;;;;;7.22;100.00;100622.94;5017469;28;20458;-68
2023/02/18 10:45:14;;;;;;;29.33;6.17;;;;;;;7.21;100.00;100615.91;5019985;28;20972;-68
2023/02/18 10:47:50;;;;;;;11.37;2.80;;;;;;;7.13;100.00;100611.13;5015980;28;20479;-68
2023/02/18 10:50:28;;;;;;;14.90;4.90;;;;;;;7.14;100.00;100604.66;5020707;28;20802;-68
2023/02/18 10:52:59;;;;;;;34.87;7.07;;;;;;;7.18;100.00;100596.81;5013530;28;20483;-68
2023/02/18 10:55:36;;;;;;;33.87;7.50;;;;;;;7.18;100.00;100581.47;5019745;28;20482;-68
2023/02/18 10:58:03;;;;;;;17.40;4.90;;;;;;;7.21;100.00;100585.47;5014722;28;20897;-68
2023/02/18 11:00:35;;;;;;;15.20;2.63;;;;;;;7.20;100.00;100565.00;5014494;28;20547;-68
2023/02/18 11:03:12;;;;;;;9.90;2.40;;;;;;;7.17;100.00;100557.47;5008758;28;20469;-68
2023/02/18 11:05:39;;;;;;;10.30;1.97;;;;;;;7.20;100.00;100546.97;5012304;28;20494;-68
2023/02/18 11:08:09;;;;;;;11.63;3.07;;;;;;;7.18;100.00;100538.38;5012243;28;20533;-68
2023/02/18 11:10:40;;;;;;;16.23;4.57;;;;;;;7.21;100.00;100528.91;5009698;28;20459;-68
2023/02/18 11:13:09;;;;;;;6.83;2.20;;;;;;;7.21;100.00;100521.63;5010099;28;20468;-68
2023/02/18 11:15:36;;;;;;;5.17;1.13;;;;;;;7.18;100.00;100511.44;5009889;28;21009;-68
2023/02/18 11:18:13;;;;;;;6.60;1.40;;;;;;;7.18;100.00;100494.47;5006111;28;20535;-68
2023/02/18 11:20:40;;;;;;;4.93;1.13;;;;;;;7.21;100.00;100494.69;5008774;28;20451;-67
2023/02/18 11:23:19;;;;;;;7.20;1.23;;;;;;;7.21;100.00;100485.81;5011101;28;20543;-69
2023/02/18 11:25:57;;;;;;;8.17;1.87;;;;;;;7.20;100.00;100493.09;5006820;28;20559;-68
2023/02/18 11:28:33;;;;;;;6.17;1.60;;;;;;;7.22;100.00;100472.06;5001655;28;20562;-68
2023/02/18 11:31:03;;;;;;;4.90;0.90;;;;;;;7.19;100.00;100461.84;5006841;28;20472;-69
2023/02/18 11:33:34;;;;;;;5.07;1.17;;;;;;;7.18;100.00;100460.25;4991673;28;20491;-68
2023/02/18 11:36:14;;;;;;;5.43;1.43;;;;;;;7.23;100.00;100465.59;4994080;28;20461;-66
2023/02/18 11:38:44;;;;;;;10.63;1.50;;;;;;;7.22;100.00;100455.91;4993568;28;20429;-65